sensor_id;sensor_type;location;lat;lon;timestamp;P1;durP1;ratioP1;P2;durP2;ratioP2
25982;SDS011;13773;48.868;10.730;2023-02-01T00:00:31;8.30;;;5.83;;
25982;SDS011;13773;48.868;10.730;2023-02-01T00:02:58;7.97;;;6.00;;
25982;SDS011;13773;48.868;10.730;2023-02-01T00:05:23;11.57;;;6.17;;
25982;SDS011;13773;48.868;10.730;2023-02-01T00:07:49;8.73;;;6.00;;
25982;SDS011;13773;48.868;10.730;2023-02-01T00:10:15;7.40;;;5.80;;
25982;SDS011;13773;48.868;10.730;2023-02-01T00:12:41;7.93;;;5.83;;
25982;SDS011;13773;48.868;10.730;2023-02-01T00:15:07;7.60;;;5.73;;
25982;SDS011;13773;48.868;10.730;2023-02-01T00:17:33;7.93;;;6.00;;
25982;SDS011;13773;48.868;10.730;2023-02-01T00:19:58;9.40;;;6.27;;
25982;SDS011;13773;48.868;10.730;2023-02-01T00:22:24;9.70;;;6.77;;
25982;SDS011;13773;48.868;10.730;2023-02-01T00:24:50;10.47;;;6.30;;
25982;SDS011;13773;48.868;10.730;2023-02-01T00:27:16;10.23;;;6.80;;
25982;SDS011;13773;48.868;10.730;2023-02-01T00:29:45;18.70;;;6.90;;
25982;SDS011;13773;48.868;10.730;2023-02-01T00:32:10;10.60;;;7.57;;
25982;SDS011;13773;48.868;10.730;2023-02-01T00:34:36;10.57;;;6.17;;
25982;SDS011;13773;48.868;10.730;2023-02-01T00:37:02;9.63;;;6.93;;
25982;SDS011;13773;48.868;10.730;2023-02-01T00:39:28;9.97;;;6.77;;
25982;SDS011;13773;48.868;10.730;2023-02-01T00:41:53;10.13;;;7.17;;
25982;SDS011;13773;48.868;10.730;2023-02-01T00:44:19;10.53;;;6.90;;
25982;SDS011;13773;48.868;10.730;2023-02-01T00:46:45;9.37;;;6.87;;
25982;SDS011;13773;48.868;10.730;2023-02-01T00:49:10;11.13;;;6.50;;
25982;SDS011;13773;48.868;10.730;2023-02-01T00:51:36;8.60;;;6.70;;
25982;SDS011;13773;48.868;10.730;2023-02-01T00:54:02;9.33;;;7.03;;
25982;SDS011;13773;48.868;10.730;2023-02-01T00:56:28;11.50;;;6.77;;
25982;SDS011;13773;48.868;10.730;2023-02-01T00:58:54;9.60;;;6.90;;
25982;SDS011;13773;48.868;10.730;2023-02-01T01:01:21;9.83;;;6.07;;
25982;SDS011;13773;48.868;10.730;2023-02-01T01:03:49;8.30;;;6.60;;
25982;SDS011;13773;48.868;10.730;2023-02-01T01:06:18;9.50;;;7.10;;
25982;SDS011;13773;48.868;10.730;2023-02-01T01:08:46;9.33;;;6.53;;
25982;SDS011;13773;48.868;10.730;2023-02-01T01:11:17;8.00;;;6.20;;
25982;SDS011;13773;48.868;10.730;2023-02-01T01:13:46;8.03;;;6.13;;
25982;SDS011;13773;48.868;10.730;2023-02-01T01:16:13;9.07;;;6.40;;
25982;SDS011;13773;48.868;10.730;2023-02-01T01:18:39;8.60;;;6.33;;
25982;SDS011;13773;48.868;10.730;2023-02-01T01:21:05;8.80;;;6.37;;
25982;SDS011;13773;48.868;10.730;2023-02-01T01:23:32;9.60;;;6.60;;
25982;SDS011;13773;48.868;10.730;2023-02-01T01:25:59;9.40;;;6.63;;
25982;SDS011;13773;48.868;10.730;2023-02-01T01:28:24;12.50;;;6.90;;
25982;SDS011;13773;48.868;10.730;2023-02-01T01:30:50;9.03;;;6.40;;
25982;SDS011;13773;48.868;10.730;2023-02-01T01:33:16;9.40;;;6.57;;
25982;SDS011;13773;48.868;10.730;2023-02-01T01:35:41;9.63;;;6.07;;
25982;SDS011;13773;48.868;10.730;2023-02-01T01:38:08;8.63;;;6.37;;
25982;SDS011;13773;48.868;10.730;2023-02-01T01:40:34;10.10;;;7.27;;
25982;SDS011;13773;48.868;10.730;2023-02-01T01:43:00;10.53;;;6.50;;
25982;SDS011;13773;48.868;10.730;2023-02-01T01:47:54;8.30;;;6.60;;
25982;SDS011;13773;48.868;10.730;2023-02-01T01:50:26;8.83;;;5.77;;
25982;SDS011;13773;48.868;10.730;2023-02-01T01:53:05;10.27;;;6.13;;
25982;SDS011;13773;48.868;10.730;2023-02-01T01:55:35;9.90;;;5.97;;
25982;SDS011;13773;48.868;10.730;2023-02-01T01:58:05;7.23;;;6.10;;
25982;SDS011;13773;48.868;10.730;2023-02-01T02:00:33;8.87;;;6.30;;
25982;SDS011;13773;48.868;10.730;2023-02-01T02:03:03;9.80;;;6.30;;
25982;SDS011;13773;48.868;10.730;2023-02-01T02:05:39;7.70;;;5.77;;
25982;SDS011;13773;48.868;10.730;2023-02-01T02:08:05;7.63;;;5.43;;
25982;SDS011;13773;48.868;10.730;2023-02-01T02:10:30;6.33;;;4.87;;
25982;SDS011;13773;48.868;10.730;2023-02-01T02:13:15;6.77;;;4.60;;
25982;SDS011;13773;48.868;10.730;2023-02-01T02:15:44;4.20;;;3.80;;
25982;SDS011;13773;48.868;10.730;2023-02-01T02:18:35;4.30;;;3.47;;
25982;SDS011;13773;48.868;10.730;2023-02-01T02:29:21;6.30;;;3.10;;
25982;SDS011;13773;48.868;10.730;2023-02-01T02:34:40;4.50;;;3.00;;
25982;SDS011;13773;48.868;10.730;2023-02-01T02:37:25;2.87;;;2.50;;
25982;SDS011;13773;48.868;10.730;2023-02-01T02:40:11;4.30;;;3.03;;
25982;SDS011;13773;48.868;10.730;2023-02-01T02:46:06;3.50;;;2.63;;
25982;SDS011;13773;48.868;10.730;2023-02-01T02:49:15;3.00;;;2.47;;
25982;SDS011;13773;48.868;10.730;2023-02-01T02:51:52;2.60;;;2.20;;
25982;SDS011;13773;48.868;10.730;2023-02-01T02:54:41;2.73;;;2.40;;
25982;SDS011;13773;48.868;10.730;2023-02-01T02:57:13;3.27;;;2.53;;
25982;SDS011;13773;48.868;10.730;2023-02-01T03:00:19;2.33;;;2.13;;
25982;SDS011;13773;48.868;10.730;2023-02-01T03:03:10;2.60;;;2.40;;
25982;SDS011;13773;48.868;10.730;2023-02-01T03:05:55;3.17;;;2.30;;
25982;SDS011;13773;48.868;10.730;2023-02-01T03:08:25;2.73;;;2.47;;
25982;SDS011;13773;48.868;10.730;2023-02-01T03:11:06;3.70;;;2.83;;
25982;SDS011;13773;48.868;10.730;2023-02-01T03:13:38;3.10;;;2.20;;
25982;SDS011;13773;48.868;10.730;2023-02-01T03:20:57;3.43;;;2.27;;
25982;SDS011;13773;48.868;10.730;2023-02-01T03:23:27;4.03;;;2.30;;
25982;SDS011;13773;48.868;10.730;2023-02-01T03:25:55;2.57;;;2.37;;
25982;SDS011;13773;48.868;10.730;2023-02-01T03:28:23;2.70;;;2.20;;
25982;SDS011;13773;48.868;10.730;2023-02-01T03:30:50;3.27;;;2.40;;
25982;SDS011;13773;48.868;10.730;2023-02-01T03:33:21;3.23;;;2.03;;
25982;SDS011;13773;48.868;10.730;2023-02-01T03:43:55;2.80;;;1.97;;
25982;SDS011;13773;48.868;10.730;2023-02-01T03:46:38;2.97;;;2.30;;
25982;SDS011;13773;48.868;10.730;2023-02-01T03:49:08;2.70;;;2.40;;
25982;SDS011;13773;48.868;10.730;2023-02-01T03:51:38;2.27;;;2.07;;
25982;SDS011;13773;48.868;10.730;2023-02-01T03:54:06;3.40;;;2.40;;
25982;SDS011;13773;48.868;10.730;2023-02-01T03:56:36;2.27;;;2.07;;
25982;SDS011;13773;48.868;10.730;2023-02-01T03:59:04;2.97;;;2.00;;
25982;SDS011;13773;48.868;10.730;2023-02-01T04:01:30;2.23;;;2.10;;
25982;SDS011;13773;48.868;10.730;2023-02-01T04:03:56;2.43;;;2.13;;
25982;SDS011;13773;48.868;10.730;2023-02-01T04:06:23;4.30;;;2.53;;
25982;SDS011;13773;48.868;10.730;2023-02-01T04:08:49;3.73;;;1.93;;
25982;SDS011;13773;48.868;10.730;2023-02-01T04:11:15;2.90;;;2.60;;
25982;SDS011;13773;48.868;10.730;2023-02-01T04:13:41;2.90;;;2.20;;
25982;SDS011;13773;48.868;10.730;2023-02-01T04:16:07;3.10;;;2.80;;
25982;SDS011;13773;48.868;10.730;2023-02-01T04:18:32;4.30;;;2.40;;
25982;SDS011;13773;48.868;10.730;2023-02-01T04:20:58;2.53;;;2.20;;
25982;SDS011;13773;48.868;10.730;2023-02-01T04:23:24;3.07;;;2.17;;
25982;SDS011;13773;48.868;10.730;2023-02-01T04:25:49;2.93;;;2.20;;
25982;SDS011;13773;48.868;10.730;2023-02-01T04:28:15;4.17;;;2.87;;
25982;SDS011;13773;48.868;10.730;2023-02-01T04:30:41;3.33;;;2.60;;
25982;SDS011;13773;48.868;10.730;2023-02-01T04:33:06;3.67;;;2.27;;
25982;SDS011;13773;48.868;10.730;2023-02-01T04:35:32;3.63;;;2.70;;
25982;SDS011;13773;48.868;10.730;2023-02-01T04:37:58;4.23;;;2.50;;
25982;SDS011;13773;48.868;10.730;2023-02-01T04:40:24;3.07;;;2.20;;
25982;SDS011;13773;48.868;10.730;2023-02-01T04:42:50;2.60;;;2.40;;
25982;SDS011;13773;48.868;10.730;2023-02-01T04:45:16;3.53;;;2.53;;
25982;SDS011;13773;48.868;10.730;2023-02-01T04:47:41;2.93;;;2.50;;
25982;SDS011;13773;48.868;10.730;2023-02-01T04:50:07;5.20;;;3.17;;
25982;SDS011;13773;48.868;10.730;2023-02-01T04:52:35;5.67;;;4.07;;
25982;SDS011;13773;48.868;10.730;2023-02-01T04:55:01;4.73;;;3.40;;
25982;SDS011;13773;48.868;10.730;2023-02-01T04:57:28;4.83;;;3.60;;
25982;SDS011;13773;48.868;10.730;2023-02-01T04:59:54;3.27;;;2.97;;
25982;SDS011;13773;48.868;10.730;2023-02-01T05:02:19;3.80;;;2.93;;
25982;SDS011;13773;48.868;10.730;2023-02-01T05:04:45;4.33;;;3.27;;
25982;SDS011;13773;48.868;10.730;2023-02-01T05:07:10;4.37;;;3.70;;
25982;SDS011;13773;48.868;10.730;2023-02-01T05:09:36;3.20;;;2.50;;
25982;SDS011;13773;48.868;10.730;2023-02-01T05:12:02;3.90;;;2.67;;
25982;SDS011;13773;48.868;10.730;2023-02-01T05:14:46;4.13;;;3.10;;
25982;SDS011;13773;48.868;10.730;2023-02-01T05:17:12;6.80;;;3.40;;
25982;SDS011;13773;48.868;10.730;2023-02-01T05:19:38;4.77;;;2.60;;
25982;SDS011;13773;48.868;10.730;2023-02-01T05:22:04;3.50;;;2.80;;
25982;SDS011;13773;48.868;10.730;2023-02-01T05:24:29;3.73;;;2.53;;
25982;SDS011;13773;48.868;10.730;2023-02-01T05:26:55;2.43;;;2.23;;
25982;SDS011;13773;48.868;10.730;2023-02-01T05:29:21;2.87;;;2.23;;
25982;SDS011;13773;48.868;10.730;2023-02-01T05:31:47;2.70;;;2.30;;
25982;SDS011;13773;48.868;10.730;2023-02-01T05:34:13;3.30;;;2.83;;
25982;SDS011;13773;48.868;10.730;2023-02-01T05:36:40;2.60;;;2.40;;
25982;SDS011;13773;48.868;10.730;2023-02-01T05:39:06;2.40;;;1.97;;
25982;SDS011;13773;48.868;10.730;2023-02-01T05:41:31;3.53;;;2.03;;
25982;SDS011;13773;48.868;10.730;2023-02-01T05:43:57;2.93;;;2.37;;
25982;SDS011;13773;48.868;10.730;2023-02-01T05:46:23;5.50;;;2.60;;
25982;SDS011;13773;48.868;10.730;2023-02-01T05:48:49;3.30;;;2.30;;
25982;SDS011;13773;48.868;10.730;2023-02-01T05:51:14;2.60;;;2.07;;
25982;SDS011;13773;48.868;10.730;2023-02-01T05:53:40;3.50;;;2.43;;
25982;SDS011;13773;48.868;10.730;2023-02-01T05:56:06;2.53;;;2.30;;
25982;SDS011;13773;48.868;10.730;2023-02-01T05:58:32;2.60;;;2.33;;
25982;SDS011;13773;48.868;10.730;2023-02-01T06:01:01;2.60;;;2.30;;
25982;SDS011;13773;48.868;10.730;2023-02-01T06:03:28;4.37;;;3.10;;
25982;SDS011;13773;48.868;10.730;2023-02-01T06:05:54;3.20;;;2.57;;
25982;SDS011;13773;48.868;10.730;2023-02-01T06:08:20;2.93;;;2.67;;
25982;SDS011;13773;48.868;10.730;2023-02-01T06:10:45;2.80;;;2.00;;
25982;SDS011;13773;48.868;10.730;2023-02-01T06:13:11;2.00;;;1.90;;
25982;SDS011;13773;48.868;10.730;2023-02-01T06:15:37;2.30;;;2.10;;
25982;SDS011;13773;48.868;10.730;2023-02-01T06:18:03;3.70;;;2.00;;
25982;SDS011;13773;48.868;10.730;2023-02-01T06:20:29;3.30;;;2.70;;
25982;SDS011;13773;48.868;10.730;2023-02-01T06:22:55;5.50;;;2.30;;
25982;SDS011;13773;48.868;10.730;2023-02-01T06:25:20;3.53;;;2.13;;
25982;SDS011;13773;48.868;10.730;2023-02-01T06:27:46;2.90;;;2.40;;
25982;SDS011;13773;48.868;10.730;2023-02-01T06:30:13;2.50;;;2.23;;
25982;SDS011;13773;48.868;10.730;2023-02-01T06:32:39;2.20;;;2.00;;
25982;SDS011;13773;48.868;10.730;2023-02-01T06:35:06;3.03;;;2.33;;
25982;SDS011;13773;48.868;10.730;2023-02-01T06:37:36;3.30;;;2.50;;
25982;SDS011;13773;48.868;10.730;2023-02-01T06:40:02;2.80;;;2.50;;
25982;SDS011;13773;48.868;10.730;2023-02-01T06:42:28;4.43;;;2.63;;
25982;SDS011;13773;48.868;10.730;2023-02-01T06:44:54;3.63;;;2.27;;
25982;SDS011;13773;48.868;10.730;2023-02-01T06:47:19;2.43;;;2.23;;
25982;SDS011;13773;48.868;10.730;2023-02-01T06:49:45;3.83;;;2.40;;
25982;SDS011;13773;48.868;10.730;2023-02-01T06:52:10;3.93;;;2.50;;
25982;SDS011;13773;48.868;10.730;2023-02-01T06:54:36;5.13;;;2.50;;
25982;SDS011;13773;48.868;10.730;2023-02-01T06:57:02;3.53;;;2.70;;
25982;SDS011;13773;48.868;10.730;2023-02-01T06:59:29;2.90;;;2.30;;
25982;SDS011;13773;48.868;10.730;2023-02-01T07:01:54;3.63;;;2.10;;
25982;SDS011;13773;48.868;10.730;2023-02-01T07:04:20;2.67;;;2.10;;
25982;SDS011;13773;48.868;10.730;2023-02-01T07:06:45;2.47;;;2.10;;
25982;SDS011;13773;48.868;10.730;2023-02-01T07:09:11;3.87;;;2.80;;
25982;SDS011;13773;48.868;10.730;2023-02-01T07:11:38;2.40;;;1.97;;
25982;SDS011;13773;48.868;10.730;2023-02-01T07:14:08;2.40;;;2.20;;
25982;SDS011;13773;48.868;10.730;2023-02-01T07:16:37;2.17;;;1.97;;
25982;SDS011;13773;48.868;10.730;2023-02-01T07:19:03;4.77;;;2.60;;
25982;SDS011;13773;48.868;10.730;2023-02-01T07:21:29;4.77;;;2.30;;
25982;SDS011;13773;48.868;10.730;2023-02-01T07:23:55;4.47;;;2.47;;
25982;SDS011;13773;48.868;10.730;2023-02-01T07:26:20;3.63;;;2.77;;
25982;SDS011;13773;48.868;10.730;2023-02-01T07:28:46;2.83;;;2.53;;
25982;SDS011;13773;48.868;10.730;2023-02-01T07:31:16;3.13;;;2.53;;
25982;SDS011;13773;48.868;10.730;2023-02-01T07:33:44;2.67;;;2.10;;
25982;SDS011;13773;48.868;10.730;2023-02-01T07:36:11;2.57;;;2.10;;
25982;SDS011;13773;48.868;10.730;2023-02-01T07:38:38;3.23;;;2.30;;
25982;SDS011;13773;48.868;10.730;2023-02-01T07:41:05;3.73;;;2.80;;
25982;SDS011;13773;48.868;10.730;2023-02-01T07:43:31;6.10;;;2.77;;
25982;SDS011;13773;48.868;10.730;2023-02-01T07:45:58;2.70;;;2.40;;
25982;SDS011;13773;48.868;10.730;2023-02-01T07:48:24;5.30;;;2.97;;
25982;SDS011;13773;48.868;10.730;2023-02-01T07:50:59;3.27;;;2.87;;
25982;SDS011;13773;48.868;10.730;2023-02-01T07:53:26;4.23;;;2.90;;
25982;SDS011;13773;48.868;10.730;2023-02-01T07:55:53;3.53;;;3.20;;
25982;SDS011;13773;48.868;10.730;2023-02-01T07:58:20;3.27;;;2.87;;
25982;SDS011;13773;48.868;10.730;2023-02-01T08:00:47;5.63;;;3.47;;
25982;SDS011;13773;48.868;10.730;2023-02-01T08:03:31;3.87;;;3.33;;
25982;SDS011;13773;48.868;10.730;2023-02-01T08:05:56;4.27;;;3.20;;
25982;SDS011;13773;48.868;10.730;2023-02-01T08:08:22;4.17;;;3.40;;
25982;SDS011;13773;48.868;10.730;2023-02-01T08:10:48;4.50;;;3.77;;
25982;SDS011;13773;48.868;10.730;2023-02-01T08:13:14;6.20;;;3.43;;
25982;SDS011;13773;48.868;10.730;2023-02-01T08:15:40;3.67;;;3.30;;
25982;SDS011;13773;48.868;10.730;2023-02-01T08:18:06;4.73;;;3.70;;
25982;SDS011;13773;48.868;10.730;2023-02-01T08:20:33;5.00;;;3.90;;
25982;SDS011;13773;48.868;10.730;2023-02-01T08:23:07;4.13;;;3.57;;
25982;SDS011;13773;48.868;10.730;2023-02-01T08:25:34;5.20;;;3.77;;
25982;SDS011;13773;48.868;10.730;2023-02-01T08:28:01;4.03;;;3.57;;
25982;SDS011;13773;48.868;10.730;2023-02-01T08:30:28;4.23;;;3.27;;
25982;SDS011;13773;48.868;10.730;2023-02-01T08:32:54;5.73;;;3.37;;
25982;SDS011;13773;48.868;10.730;2023-02-01T08:35:19;3.50;;;3.20;;
25982;SDS011;13773;48.868;10.730;2023-02-01T08:37:45;3.97;;;3.30;;
25982;SDS011;13773;48.868;10.730;2023-02-01T08:40:10;5.00;;;3.47;;
25982;SDS011;13773;48.868;10.730;2023-02-01T08:42:39;5.33;;;3.77;;
25982;SDS011;13773;48.868;10.730;2023-02-01T08:45:24;6.70;;;4.00;;
25982;SDS011;13773;48.868;10.730;2023-02-01T08:47:53;4.60;;;3.40;;
25982;SDS011;13773;48.868;10.730;2023-02-01T08:50:19;5.67;;;3.97;;
25982;SDS011;13773;48.868;10.730;2023-02-01T08:52:46;3.80;;;3.40;;
25982;SDS011;13773;48.868;10.730;2023-02-01T08:55:12;4.40;;;3.30;;
25982;SDS011;13773;48.868;10.730;2023-02-01T08:57:38;5.77;;;3.80;;
25982;SDS011;13773;48.868;10.730;2023-02-01T09:00:06;4.23;;;2.90;;
25982;SDS011;13773;48.868;10.730;2023-02-01T09:02:34;6.80;;;3.50;;
25982;SDS011;13773;48.868;10.730;2023-02-01T09:05:00;4.37;;;3.70;;
25982;SDS011;13773;48.868;10.730;2023-02-01T09:07:26;3.97;;;3.27;;
25982;SDS011;13773;48.868;10.730;2023-02-01T09:09:52;4.90;;;3.10;;
25982;SDS011;13773;48.868;10.730;2023-02-01T09:12:19;5.10;;;3.07;;
25982;SDS011;13773;48.868;10.730;2023-02-01T09:14:45;4.33;;;3.10;;
25982;SDS011;13773;48.868;10.730;2023-02-01T09:17:11;6.10;;;3.20;;
25982;SDS011;13773;48.868;10.730;2023-02-01T09:19:38;5.27;;;3.10;;
25982;SDS011;13773;48.868;10.730;2023-02-01T09:22:04;3.93;;;3.10;;
25982;SDS011;13773;48.868;10.730;2023-02-01T09:24:30;4.07;;;3.30;;
25982;SDS011;13773;48.868;10.730;2023-02-01T09:26:56;4.83;;;3.10;;
25982;SDS011;13773;48.868;10.730;2023-02-01T09:29:21;5.33;;;3.00;;
25982;SDS011;13773;48.868;10.730;2023-02-01T09:31:47;5.53;;;3.07;;
25982;SDS011;13773;48.868;10.730;2023-02-01T09:34:13;5.57;;;3.43;;
25982;SDS011;13773;48.868;10.730;2023-02-01T09:36:39;6.17;;;3.30;;
25982;SDS011;13773;48.868;10.730;2023-02-01T09:39:04;5.20;;;3.23;;
25982;SDS011;13773;48.868;10.730;2023-02-01T09:44:20;6.23;;;4.93;;
25982;SDS011;13773;48.868;10.730;2023-02-01T09:46:53;4.03;;;2.87;;
25982;SDS011;13773;48.868;10.730;2023-02-01T09:49:22;4.57;;;2.80;;
25982;SDS011;13773;48.868;10.730;2023-02-01T09:51:52;3.07;;;2.53;;
25982;SDS011;13773;48.868;10.730;2023-02-01T09:54:27;3.40;;;2.47;;
25982;SDS011;13773;48.868;10.730;2023-02-01T09:57:15;4.03;;;2.90;;
25982;SDS011;13773;48.868;10.730;2023-02-01T09:59:46;3.87;;;3.07;;
25982;SDS011;13773;48.868;10.730;2023-02-01T10:02:20;3.97;;;2.47;;
25982;SDS011;13773;48.868;10.730;2023-02-01T10:04:49;6.00;;;3.00;;
25982;SDS011;13773;48.868;10.730;2023-02-01T10:07:19;4.03;;;2.83;;
25982;SDS011;13773;48.868;10.730;2023-02-01T10:27:20;7.53;;;3.90;;
25982;SDS011;13773;48.868;10.730;2023-02-01T10:30:33;7.50;;;3.47;;
25982;SDS011;13773;48.868;10.730;2023-02-01T10:32:44;7.37;;;4.00;;
25982;SDS011;13773;48.868;10.730;2023-02-01T10:35:15;8.43;;;4.03;;
25982;SDS011;13773;48.868;10.730;2023-02-01T10:37:43;12.40;;;4.53;;
25982;SDS011;13773;48.868;10.730;2023-02-01T10:42:41;6.70;;;3.53;;
25982;SDS011;13773;48.868;10.730;2023-02-01T10:45:11;7.53;;;3.90;;
25982;SDS011;13773;48.868;10.730;2023-02-01T10:47:39;7.23;;;3.50;;
25982;SDS011;13773;48.868;10.730;2023-02-01T10:50:11;8.23;;;3.93;;
25982;SDS011;13773;48.868;10.730;2023-02-01T10:55:46;6.17;;;3.37;;
25982;SDS011;13773;48.868;10.730;2023-02-01T10:58:15;8.53;;;3.53;;
25982;SDS011;13773;48.868;10.730;2023-02-01T11:00:54;6.50;;;3.13;;
25982;SDS011;13773;48.868;10.730;2023-02-01T11:03:38;8.20;;;3.20;;
25982;SDS011;13773;48.868;10.730;2023-02-01T11:08:58;8.50;;;3.40;;
25982;SDS011;13773;48.868;10.730;2023-02-01T11:11:35;6.47;;;3.10;;
25982;SDS011;13773;48.868;10.730;2023-02-01T11:14:20;7.37;;;3.33;;
25982;SDS011;13773;48.868;10.730;2023-02-01T11:16:49;7.57;;;2.67;;
25982;SDS011;13773;48.868;10.730;2023-02-01T11:19:34;5.50;;;3.47;;
25982;SDS011;13773;48.868;10.730;2023-02-01T11:21:59;11.60;;;4.80;;
25982;SDS011;13773;48.868;10.730;2023-02-01T11:24:27;14.17;;;4.03;;
25982;SDS011;13773;48.868;10.730;2023-02-01T11:26:59;8.77;;;3.90;;
25982;SDS011;13773;48.868;10.730;2023-02-01T11:29:28;9.27;;;4.70;;
25982;SDS011;13773;48.868;10.730;2023-02-01T11:32:01;7.63;;;4.53;;
25982;SDS011;13773;48.868;10.730;2023-02-01T11:34:31;7.90;;;4.63;;
25982;SDS011;13773;48.868;10.730;2023-02-01T11:37:02;9.10;;;4.23;;
25982;SDS011;13773;48.868;10.730;2023-02-01T11:39:30;13.80;;;5.23;;
25982;SDS011;13773;48.868;10.730;2023-02-01T11:42:03;6.43;;;3.80;;
25982;SDS011;13773;48.868;10.730;2023-02-01T11:44:38;11.43;;;4.33;;
25982;SDS011;13773;48.868;10.730;2023-02-01T11:49:47;8.10;;;3.70;;
25982;SDS011;13773;48.868;10.730;2023-02-01T11:52:25;11.20;;;3.70;;
25982;SDS011;13773;48.868;10.730;2023-02-01T11:57:45;8.73;;;4.20;;
25982;SDS011;13773;48.868;10.730;2023-02-01T12:00:37;8.10;;;3.77;;
25982;SDS011;13773;48.868;10.730;2023-02-01T12:08:49;6.73;;;3.10;;
25982;SDS011;13773;48.868;10.730;2023-02-01T12:11:32;8.97;;;4.13;;
25982;SDS011;13773;48.868;10.730;2023-02-01T12:16:39;12.13;;;4.23;;
25982;SDS011;13773;48.868;10.730;2023-02-01T12:19:17;12.80;;;5.13;;
25982;SDS011;13773;48.868;10.730;2023-02-01T12:21:53;8.73;;;4.20;;
25982;SDS011;13773;48.868;10.730;2023-02-01T12:36:14;7.10;;;2.70;;
25982;SDS011;13773;48.868;10.730;2023-02-01T12:41:32;10.83;;;3.40;;
25982;SDS011;13773;48.868;10.730;2023-02-01T12:47:03;9.63;;;3.03;;
25982;SDS011;13773;48.868;10.730;2023-02-01T12:52:06;11.33;;;3.50;;
25982;SDS011;13773;48.868;10.730;2023-02-01T12:57:14;14.00;;;3.00;;
25982;SDS011;13773;48.868;10.730;2023-02-01T13:00:27;14.70;;;3.67;;
25982;SDS011;13773;48.868;10.730;2023-02-01T13:11:33;8.90;;;3.73;;
25982;SDS011;13773;48.868;10.730;2023-02-01T13:16:44;10.53;;;2.67;;
25982;SDS011;13773;48.868;10.730;2023-02-01T13:19:16;12.20;;;3.50;;
25982;SDS011;13773;48.868;10.730;2023-02-01T13:21:51;12.73;;;4.93;;
25982;SDS011;13773;48.868;10.730;2023-02-01T13:27:13;10.13;;;3.10;;
25982;SDS011;13773;48.868;10.730;2023-02-01T13:29:52;8.03;;;3.40;;
25982;SDS011;13773;48.868;10.730;2023-02-01T13:43:07;9.40;;;4.37;;
25982;SDS011;13773;48.868;10.730;2023-02-01T13:45:42;10.23;;;4.57;;
25982;SDS011;13773;48.868;10.730;2023-02-01T13:48:18;12.87;;;3.90;;
25982;SDS011;13773;48.868;10.730;2023-02-01T13:50:58;6.20;;;2.70;;
25982;SDS011;13773;48.868;10.730;2023-02-01T13:53:27;7.00;;;2.87;;
25982;SDS011;13773;48.868;10.730;2023-02-01T13:58:30;10.03;;;3.17;;
25982;SDS011;13773;48.868;10.730;2023-02-01T14:01:38;9.93;;;2.43;;
25982;SDS011;13773;48.868;10.730;2023-02-01T14:03:54;6.87;;;2.93;;
25982;SDS011;13773;48.868;10.730;2023-02-01T14:11:37;5.30;;;2.70;;
25982;SDS011;13773;48.868;10.730;2023-02-01T14:16:43;5.50;;;2.80;;
25982;SDS011;13773;48.868;10.730;2023-02-01T14:19:19;6.50;;;2.57;;
25982;SDS011;13773;48.868;10.730;2023-02-01T14:21:49;10.67;;;2.60;;
25982;SDS011;13773;48.868;10.730;2023-02-01T14:26:55;8.70;;;2.83;;
25982;SDS011;13773;48.868;10.730;2023-02-01T14:29:36;10.00;;;2.67;;
25982;SDS011;13773;48.868;10.730;2023-02-01T14:32:04;10.87;;;3.10;;
25982;SDS011;13773;48.868;10.730;2023-02-01T14:44:52;7.37;;;3.00;;
25982;SDS011;13773;48.868;10.730;2023-02-01T14:47:36;6.63;;;2.43;;
25982;SDS011;13773;48.868;10.730;2023-02-01T14:52:44;10.13;;;2.30;;
25982;SDS011;13773;48.868;10.730;2023-02-01T14:55:19;10.13;;;3.07;;
25982;SDS011;13773;48.868;10.730;2023-02-01T14:57:52;12.30;;;2.70;;
25982;SDS011;13773;48.868;10.730;2023-02-01T15:00:23;11.70;;;2.90;;
25982;SDS011;13773;48.868;10.730;2023-02-01T15:02:51;7.73;;;3.10;;
25982;SDS011;13773;48.868;10.730;2023-02-01T15:07:49;8.60;;;2.70;;
25982;SDS011;13773;48.868;10.730;2023-02-01T15:10:17;7.33;;;2.73;;
25982;SDS011;13773;48.868;10.730;2023-02-01T15:12:45;11.80;;;2.83;;
25982;SDS011;13773;48.868;10.730;2023-02-01T15:17:51;14.03;;;2.90;;
25982;SDS011;13773;48.868;10.730;2023-02-01T15:20:25;8.53;;;2.57;;
25982;SDS011;13773;48.868;10.730;2023-02-01T15:23:00;11.77;;;3.37;;
25982;SDS011;13773;48.868;10.730;2023-02-01T15:25:32;10.27;;;3.03;;
25982;SDS011;13773;48.868;10.730;2023-02-01T15:28:01;7.43;;;3.10;;
25982;SDS011;13773;48.868;10.730;2023-02-01T15:30:29;7.80;;;3.10;;
25982;SDS011;13773;48.868;10.730;2023-02-01T15:33:18;10.03;;;3.00;;
25982;SDS011;13773;48.868;10.730;2023-02-01T15:35:45;7.43;;;2.90;;
25982;SDS011;13773;48.868;10.730;2023-02-01T15:40:57;14.50;;;3.37;;
25982;SDS011;13773;48.868;10.730;2023-02-01T15:43:23;10.53;;;2.80;;
25982;SDS011;13773;48.868;10.730;2023-02-01T15:45:49;6.67;;;2.53;;
25982;SDS011;13773;48.868;10.730;2023-02-01T15:48:20;8.83;;;3.43;;
25982;SDS011;13773;48.868;10.730;2023-02-01T15:50:49;10.43;;;2.90;;
25982;SDS011;13773;48.868;10.730;2023-02-01T15:53:17;7.30;;;2.70;;
25982;SDS011;13773;48.868;10.730;2023-02-01T15:55:46;9.80;;;3.10;;
25982;SDS011;13773;48.868;10.730;2023-02-01T15:58:17;7.77;;;2.77;;
25982;SDS011;13773;48.868;10.730;2023-02-01T16:00:49;9.70;;;2.70;;
25982;SDS011;13773;48.868;10.730;2023-02-01T16:06:12;13.57;;;3.03;;
25982;SDS011;13773;48.868;10.730;2023-02-01T16:09:00;7.77;;;3.40;;
25982;SDS011;13773;48.868;10.730;2023-02-01T16:11:29;13.50;;;3.37;;
25982;SDS011;13773;48.868;10.730;2023-02-01T16:13:57;8.60;;;2.97;;
25982;SDS011;13773;48.868;10.730;2023-02-01T16:16:24;6.60;;;3.10;;
25982;SDS011;13773;48.868;10.730;2023-02-01T16:18:52;13.43;;;3.57;;
25982;SDS011;13773;48.868;10.730;2023-02-01T16:21:17;13.10;;;4.20;;
25982;SDS011;13773;48.868;10.730;2023-02-01T16:23:43;7.87;;;3.00;;
25982;SDS011;13773;48.868;10.730;2023-02-01T16:26:12;8.70;;;2.90;;
25982;SDS011;13773;48.868;10.730;2023-02-01T16:28:38;7.17;;;2.53;;
25982;SDS011;13773;48.868;10.730;2023-02-01T16:31:05;11.97;;;2.97;;
25982;SDS011;13773;48.868;10.730;2023-02-01T16:33:33;8.40;;;2.97;;
25982;SDS011;13773;48.868;10.730;2023-02-01T16:35:59;11.97;;;2.70;;
25982;SDS011;13773;48.868;10.730;2023-02-01T16:38:27;12.43;;;3.10;;
25982;SDS011;13773;48.868;10.730;2023-02-01T16:40:53;10.43;;;4.23;;
25982;SDS011;13773;48.868;10.730;2023-02-01T16:43:20;7.13;;;2.90;;
25982;SDS011;13773;48.868;10.730;2023-02-01T16:45:47;13.47;;;3.60;;
25982;SDS011;13773;48.868;10.730;2023-02-01T16:50:49;14.13;;;2.93;;
25982;SDS011;13773;48.868;10.730;2023-02-01T16:53:20;7.10;;;3.07;;
25982;SDS011;13773;48.868;10.730;2023-02-01T16:55:47;9.63;;;3.00;;
25982;SDS011;13773;48.868;10.730;2023-02-01T16:58:14;10.40;;;3.37;;
25982;SDS011;13773;48.868;10.730;2023-02-01T17:00:41;9.67;;;3.20;;
25982;SDS011;13773;48.868;10.730;2023-02-01T17:03:09;6.70;;;2.70;;
25982;SDS011;13773;48.868;10.730;2023-02-01T17:05:41;10.47;;;2.47;;
25982;SDS011;13773;48.868;10.730;2023-02-01T17:08:11;10.63;;;3.33;;
25982;SDS011;13773;48.868;10.730;2023-02-01T17:10:41;10.80;;;3.13;;
25982;SDS011;13773;48.868;10.730;2023-02-01T17:13:13;10.73;;;4.17;;
25982;SDS011;13773;48.868;10.730;2023-02-01T17:15:40;8.50;;;3.63;;
25982;SDS011;13773;48.868;10.730;2023-02-01T17:18:30;9.63;;;2.80;;
25982;SDS011;13773;48.868;10.730;2023-02-01T17:21:00;7.70;;;2.97;;
25982;SDS011;13773;48.868;10.730;2023-02-01T17:23:27;8.07;;;2.97;;
25982;SDS011;13773;48.868;10.730;2023-02-01T17:25:54;7.73;;;3.20;;